createdAt,value
2023-05-03T00:00:40.861Z,1.10
2023-05-03T00:03:43.393Z,1.00
2023-05-03T00:06:45.162Z,1.10
2023-05-03T00:09:49.674Z,1.00
2023-05-03T00:12:51.137Z,1.00
2023-05-03T00:15:52.641Z,0.95
2023-05-03T00:18:54.262Z,0.90
2023-05-03T00:21:55.716Z,1.20
2023-05-03T00:24:57.264Z,1.00
2023-05-03T00:27:58.708Z,1.00
2023-05-03T00:31:10.342Z,1.10
2023-05-03T00:34:11.911Z,0.93
2023-05-03T00:37:13.386Z,0.85
2023-05-03T00:40:18.495Z,1.00
2023-05-03T00:43:19.980Z,1.00
2023-05-03T00:46:21.701Z,1.00
2023-05-03T00:49:26.666Z,1.00
2023-05-03T00:52:29.355Z,0.98
2023-05-03T00:55:32.002Z,1.00
2023-05-03T00:58:36.142Z,1.00
2023-05-03T01:01:37.703Z,0.98
2023-05-03T01:04:42.350Z,0.98
2023-05-03T01:07:53.690Z,0.80
2023-05-03T01:11:02.884Z,1.00
2023-05-03T01:14:16.501Z,0.80
2023-05-03T01:17:25.404Z,1.05
2023-05-03T01:20:30.769Z,1.05
2023-05-03T01:23:51.733Z,0.88
2023-05-03T01:26:53.198Z,1.10
2023-05-03T01:29:54.647Z,0.90
2023-05-03T01:33:10.983Z,0.90
2023-05-03T01:36:22.635Z,1.10
2023-05-03T01:39:49.896Z,0.90
2023-05-03T01:42:53.430Z,1.10
2023-05-03T01:45:55.072Z,0.95
2023-05-03T01:48:56.550Z,0.80
2023-05-03T01:51:58.014Z,0.90
2023-05-03T01:55:00.119Z,0.90
2023-05-03T01:58:01.606Z,1.00
2023-05-03T02:01:05.574Z,1.02
2023-05-03T02:04:07.245Z,0.95
2023-05-03T02:07:09.290Z,0.82
2023-05-03T02:10:14.912Z,1.10
2023-05-03T02:13:16.723Z,0.80
2023-05-03T02:16:18.815Z,0.90
2023-05-03T02:19:20.486Z,0.80
2023-05-03T02:22:22.003Z,1.00
2023-05-03T02:25:23.853Z,0.90
2023-05-03T02:28:26.280Z,0.80
2023-05-03T02:31:28.024Z,0.80
2023-05-03T02:34:32.781Z,0.80
2023-05-03T02:37:34.388Z,0.98
2023-05-03T02:43:42.170Z,0.82
2023-05-03T02:46:44.389Z,0.80
2023-05-03T02:49:45.999Z,0.80
2023-05-03T02:52:48.099Z,0.70
2023-05-03T02:55:50.102Z,0.80
2023-05-03T02:58:51.941Z,0.90
2023-05-03T03:01:54.714Z,0.70
2023-05-03T03:04:56.199Z,0.70
2023-05-03T03:07:58.592Z,0.70
2023-05-03T03:11:01.690Z,0.60
2023-05-03T03:14:03.208Z,0.85
2023-05-03T03:17:08.910Z,0.77
2023-05-03T03:20:13.427Z,0.70
2023-05-03T03:23:18.687Z,0.80
2023-05-03T03:26:20.245Z,0.80
2023-05-03T03:29:21.861Z,0.90
2023-05-03T03:32:24.232Z,0.75
2023-05-03T03:35:26.844Z,0.90
2023-05-03T03:38:28.499Z,0.70
2023-05-03T03:41:36.206Z,0.80
2023-05-03T03:44:38.314Z,0.63
2023-05-03T03:47:41.148Z,0.75
2023-05-03T03:50:42.934Z,0.90
2023-05-03T03:53:46.452Z,0.80
2023-05-03T03:56:48.238Z,0.60
2023-05-03T03:59:50.367Z,0.70
2023-05-03T04:02:51.955Z,0.80
2023-05-03T04:05:54.933Z,0.82
2023-05-03T04:08:57.024Z,0.77
2023-05-03T04:11:59.683Z,0.80
2023-05-03T04:15:01.277Z,0.80
2023-05-03T04:18:04.069Z,0.60
2023-05-03T04:21:05.905Z,0.70
2023-05-03T04:24:07.869Z,0.70
2023-05-03T04:27:09.831Z,0.80
2023-05-03T04:30:15.543Z,0.70
2023-05-03T04:33:21.535Z,0.70
2023-05-03T04:36:25.859Z,0.80
2023-05-03T04:39:29.019Z,0.70
2023-05-03T04:42:30.847Z,0.80
2023-05-03T04:45:32.959Z,0.73
2023-05-03T04:48:36.237Z,0.80
2023-05-03T04:51:37.752Z,0.77
2023-05-03T04:54:39.971Z,0.70
2023-05-03T04:57:42.515Z,0.80
2023-05-03T05:00:46.428Z,0.68
2023-05-03T05:03:54.532Z,0.70
2023-05-03T05:07:00.967Z,0.80
2023-05-03T05:10:06.478Z,0.70
2023-05-03T05:13:08.188Z,0.70
2023-05-03T05:16:10.150Z,0.80
2023-05-03T05:19:14.911Z,0.70
2023-05-03T05:22:16.578Z,0.70
2023-05-03T05:25:23.398Z,0.90
2023-05-03T05:28:24.902Z,0.90
2023-05-03T05:31:26.454Z,0.75
2023-05-03T05:34:30.919Z,0.82
2023-05-03T05:37:35.697Z,0.70
2023-05-03T05:40:39.264Z,0.70
2023-05-03T05:43:40.820Z,0.90
2023-05-03T05:46:42.772Z,0.70
2023-05-03T05:49:44.496Z,0.90
2023-05-03T05:52:47.964Z,0.77
2023-05-03T05:55:49.564Z,0.90
2023-05-03T05:58:52.398Z,0.90
2023-05-03T06:01:54.664Z,0.80
2023-05-03T06:04:56.320Z,0.68
2023-05-03T06:07:57.914Z,0.82
2023-05-03T06:10:59.506Z,0.70
2023-05-03T06:14:03.919Z,0.80
2023-05-03T06:17:06.295Z,0.98
2023-05-03T06:20:11.853Z,0.90
2023-05-03T06:23:15.156Z,0.80
2023-05-03T06:26:17.487Z,1.30
2023-05-03T06:29:19.930Z,1.40
2023-05-03T06:32:21.810Z,1.52
2023-05-03T06:35:23.713Z,1.50
2023-05-03T06:38:25.332Z,1.90
2023-05-03T06:41:26.766Z,1.50
2023-05-03T06:44:28.324Z,1.63
2023-05-03T06:47:29.791Z,1.45
2023-05-03T06:50:31.960Z,2.08
2023-05-03T06:53:33.421Z,1.45
2023-05-03T06:56:36.111Z,1.40
2023-05-03T06:59:37.591Z,1.60
2023-05-03T07:02:39.132Z,1.52
2023-05-03T07:05:40.670Z,1.60
2023-05-03T07:08:42.514Z,1.55
2023-05-03T07:11:49.368Z,2.00
2023-05-03T07:14:50.826Z,1.58
2023-05-03T07:17:52.336Z,1.60
2023-05-03T07:20:53.912Z,1.70
2023-05-03T07:23:55.454Z,1.50
2023-05-03T07:26:58.003Z,1.40
2023-05-03T07:30:00.284Z,1.70
2023-05-03T07:33:01.985Z,1.60
2023-05-03T07:36:05.178Z,1.25
2023-05-03T07:39:07.384Z,1.33
2023-05-03T07:42:08.908Z,1.30
2023-05-03T07:45:10.657Z,1.35
2023-05-03T07:48:12.232Z,1.13
2023-05-03T07:51:13.767Z,1.13
2023-05-03T07:54:15.598Z,1.20
2023-05-03T07:57:17.366Z,1.05
2023-05-03T08:00:19.068Z,1.00
2023-05-03T08:03:21.443Z,1.50
2023-05-03T08:06:23.275Z,1.40
2023-05-03T08:09:24.997Z,1.30
2023-05-03T08:12:26.836Z,1.20
2023-05-03T08:15:28.416Z,1.20
2023-05-03T08:18:29.939Z,1.02
2023-05-03T08:21:33.213Z,1.10
2023-05-03T08:24:35.059Z,1.20
2023-05-03T08:27:37.444Z,1.10
2023-05-03T08:30:39.026Z,1.10
2023-05-03T08:33:40.538Z,1.10
2023-05-03T08:36:42.023Z,1.10
2023-05-03T08:39:43.532Z,1.10
2023-05-03T08:42:46.121Z,1.05
2023-05-03T08:45:47.789Z,1.13
2023-05-03T08:48:52.504Z,1.10
2023-05-03T08:51:55.585Z,1.30
2023-05-03T08:54:57.289Z,1.10
2023-05-03T08:58:00.490Z,1.10
2023-05-03T09:01:09.757Z,1.20
2023-05-03T09:04:11.916Z,1.00
2023-05-03T09:07:15.852Z,1.08
2023-05-03T09:10:24.485Z,1.10
2023-05-03T09:13:32.296Z,1.05
2023-05-03T09:16:33.922Z,1.10
2023-05-03T09:19:50.499Z,1.20
2023-05-03T09:22:52.590Z,1.10
2023-05-03T09:25:54.576Z,1.20
2023-05-03T09:28:58.063Z,1.00
2023-05-03T09:32:01.387Z,1.33
2023-05-03T09:35:10.103Z,1.05
2023-05-03T09:38:27.035Z,1.08
2023-05-03T09:44:41.850Z,1.00
2023-05-03T09:47:52.308Z,0.90
2023-05-03T09:50:54.057Z,1.10
2023-05-03T09:53:56.624Z,1.10
2023-05-03T09:56:59.099Z,1.00
2023-05-03T10:00:00.722Z,1.00
2023-05-03T10:03:07.055Z,1.20
2023-05-03T10:06:16.332Z,1.10
2023-05-03T10:09:20.529Z,1.10
2023-05-03T10:12:22.522Z,1.08
2023-05-03T10:15:27.000Z,1.00
2023-05-03T10:18:32.229Z,1.00
2023-05-03T10:21:46.973Z,1.00
2023-05-03T10:25:01.414Z,0.90
2023-05-03T10:28:07.283Z,1.17
2023-05-03T10:31:45.375Z,1.20
2023-05-03T10:34:47.022Z,0.90
2023-05-03T10:37:50.472Z,1.00
2023-05-03T10:40:53.166Z,1.00
2023-05-03T10:43:54.694Z,1.00
2023-05-03T10:46:57.218Z,0.90
2023-05-03T10:50:17.228Z,1.23
2023-05-03T10:53:31.116Z,1.10
2023-05-03T10:56:32.611Z,0.90
2023-05-03T10:59:47.564Z,0.90
2023-05-03T11:03:09.899Z,0.90
2023-05-03T11:06:27.742Z,0.90
2023-05-03T11:09:33.809Z,1.00
2023-05-03T11:12:35.305Z,1.10
2023-05-03T11:15:37.000Z,1.13
2023-05-03T11:18:38.987Z,1.10
2023-05-03T11:21:40.492Z,1.10
2023-05-03T11:24:41.953Z,0.90
2023-05-03T11:27:44.453Z,0.95
2023-05-03T11:30:46.950Z,1.00
2023-05-03T11:33:49.788Z,1.00
2023-05-03T11:36:51.329Z,0.93
2023-05-03T11:39:52.772Z,1.00
2023-05-03T11:42:56.196Z,1.10
2023-05-03T11:45:59.271Z,1.00
2023-05-03T11:49:02.149Z,1.10
2023-05-03T11:52:03.964Z,0.93
2023-05-03T11:55:07.900Z,1.05
2023-05-03T11:58:32.046Z,0.90
2023-05-03T12:01:33.554Z,1.08
2023-05-03T12:04:37.101Z,0.80
2023-05-03T12:07:39.432Z,0.90
2023-05-03T12:10:42.918Z,0.93
2023-05-03T12:13:44.857Z,1.05
2023-05-03T12:16:51.827Z,0.90
2023-05-03T12:20:50.510Z,1.20
2023-05-03T12:23:35.792Z,1.20
2023-05-03T12:26:38.075Z,1.20
2023-05-03T12:29:41.679Z,1.10
2023-05-03T12:32:44.496Z,1.10
2023-05-03T12:35:48.117Z,0.98
2023-05-03T12:38:55.840Z,1.20
2023-05-03T12:45:04.949Z,1.15
2023-05-03T12:48:06.825Z,1.00
2023-05-03T12:51:19.467Z,0.95
2023-05-03T12:54:26.747Z,1.00
2023-05-03T12:57:30.669Z,1.08
2023-05-03T13:00:36.372Z,1.00
2023-05-03T13:03:43.673Z,0.90
2023-05-03T13:06:46.754Z,1.00
2023-05-03T13:12:54.058Z,1.00
2023-05-03T13:15:55.725Z,1.35
2023-05-03T13:18:57.236Z,1.20
2023-05-03T13:21:58.695Z,1.20
2023-05-03T13:25:00.188Z,1.00
2023-05-03T13:28:01.996Z,1.02
2023-05-03T13:31:03.558Z,1.00
2023-05-03T13:34:06.115Z,0.80
2023-05-03T13:37:07.679Z,1.10
2023-05-03T13:40:10.045Z,1.02
2023-05-03T13:43:11.544Z,1.25
2023-05-03T13:46:13.106Z,0.90
2023-05-03T13:49:14.688Z,1.00
2023-05-03T13:52:16.260Z,0.90
2023-05-03T13:55:17.880Z,1.00
2023-05-03T13:58:19.446Z,1.20
2023-05-03T14:01:21.018Z,1.00
2023-05-03T14:04:24.397Z,1.02
2023-05-03T14:07:25.921Z,1.23
2023-05-03T14:10:27.478Z,1.10
2023-05-03T14:13:32.982Z,0.98
2023-05-03T14:16:41.449Z,1.00
2023-05-03T14:19:43.670Z,1.00
2023-05-03T14:22:45.751Z,1.10
2023-05-03T14:25:47.257Z,0.93
2023-05-03T14:28:48.807Z,1.33
2023-05-03T14:31:50.571Z,1.08
2023-05-03T14:34:52.185Z,1.05
2023-05-03T14:37:53.842Z,0.95
2023-05-03T14:40:55.430Z,0.98
2023-05-03T14:43:56.979Z,0.80
2023-05-03T14:46:59.044Z,0.90
2023-05-03T14:50:01.368Z,0.90
2023-05-03T14:53:03.451Z,0.95
2023-05-03T14:56:05.012Z,0.95
2023-05-03T14:59:06.959Z,0.90
2023-05-03T15:02:10.136Z,0.90
2023-05-03T15:05:12.860Z,0.90
2023-05-03T15:08:16.016Z,0.82
2023-05-03T15:11:17.707Z,0.90
2023-05-03T15:14:19.325Z,0.80
2023-05-03T15:17:20.992Z,0.95
2023-05-03T15:20:22.844Z,0.90
2023-05-03T15:23:24.624Z,0.90
2023-05-03T15:26:26.425Z,1.00
2023-05-03T15:29:28.331Z,0.90
2023-05-03T15:32:30.062Z,1.10
2023-05-03T15:35:31.549Z,1.00
2023-05-03T15:38:32.997Z,0.80
2023-05-03T15:41:34.472Z,0.90
2023-05-03T15:44:37.134Z,1.00
2023-05-03T15:47:38.732Z,0.80
2023-05-03T15:50:40.388Z,1.00
2023-05-03T15:53:41.948Z,0.80
2023-05-03T15:56:47.166Z,0.73
2023-05-03T15:59:49.381Z,0.90
2023-05-03T16:02:51.022Z,0.73
2023-05-03T16:05:53.307Z,0.80
2023-05-03T16:08:54.794Z,0.80
2023-05-03T16:11:57.669Z,0.90
2023-05-03T16:14:59.188Z,0.80
2023-05-03T16:18:01.319Z,0.90
2023-05-03T16:21:02.981Z,0.80
2023-05-03T16:24:04.864Z,0.77
2023-05-03T16:27:06.400Z,0.80
2023-05-03T16:30:09.078Z,0.90
2023-05-03T16:33:10.702Z,0.90
2023-05-03T16:36:12.176Z,0.90
2023-05-03T16:39:14.578Z,0.80
2023-05-03T16:42:16.238Z,0.80
2023-05-03T16:45:19.552Z,0.95
2023-05-03T16:48:21.982Z,0.90
2023-05-03T16:51:23.554Z,1.00
2023-05-03T16:54:25.150Z,0.77
2023-05-03T16:57:26.874Z,0.93
2023-05-03T17:00:28.832Z,1.00
2023-05-03T17:03:30.726Z,0.80
2023-05-03T17:06:32.562Z,1.00
2023-05-03T17:09:34.161Z,0.90
2023-05-03T17:12:35.851Z,0.95
2023-05-03T17:15:37.454Z,1.10
2023-05-03T17:18:40.420Z,1.10
2023-05-03T17:21:42.008Z,0.90
2023-05-03T17:24:43.604Z,0.95
2023-05-03T17:27:45.228Z,1.05
2023-05-03T17:30:46.715Z,1.10
2023-05-03T17:33:48.245Z,1.20
2023-05-03T17:36:49.975Z,0.90
2023-05-03T17:39:51.604Z,0.80
2023-05-03T17:42:53.174Z,0.98
2023-05-03T17:45:54.698Z,1.05
2023-05-03T17:48:57.703Z,1.10
2023-05-03T17:51:59.597Z,0.95
2023-05-03T17:55:02.501Z,1.05
2023-05-03T17:58:05.998Z,1.05
2023-05-03T18:01:10.406Z,1.00
2023-05-03T18:04:12.043Z,1.13
2023-05-03T18:07:14.755Z,1.10
2023-05-03T18:10:17.478Z,1.33
2023-05-03T18:13:19.188Z,1.10
2023-05-03T18:16:20.756Z,1.10
2023-05-03T18:19:22.479Z,1.10
2023-05-03T18:22:27.368Z,1.00
2023-05-03T18:25:29.317Z,1.00
2023-05-03T18:28:30.842Z,0.90
2023-05-03T18:31:32.389Z,1.10
2023-05-03T18:34:37.253Z,0.90
2023-05-03T18:37:38.690Z,0.90
2023-05-03T18:40:40.309Z,1.00
2023-05-03T18:43:43.310Z,1.10
2023-05-03T18:46:44.807Z,1.00
2023-05-03T18:49:48.440Z,1.00
2023-05-03T18:52:50.764Z,1.00
2023-05-03T18:55:52.372Z,0.90
2023-05-03T18:58:53.822Z,0.90
2023-05-03T19:01:55.353Z,0.82
2023-05-03T19:04:56.951Z,0.88
2023-05-03T19:07:58.417Z,1.00
2023-05-03T19:11:14.269Z,1.00
2023-05-03T19:14:16.201Z,1.00
2023-05-03T19:17:17.725Z,1.00
2023-05-03T19:20:19.308Z,1.00
2023-05-03T19:23:20.842Z,0.90
2023-05-03T19:26:22.293Z,1.00
2023-05-03T19:29:23.862Z,1.02
2023-05-03T19:32:25.395Z,1.00
2023-05-03T19:35:26.865Z,0.80
2023-05-03T19:38:28.309Z,0.90
2023-05-03T19:41:30.080Z,0.90
2023-05-03T19:44:31.864Z,0.82
2023-05-03T19:47:33.587Z,0.80
2023-05-03T19:50:35.876Z,1.10
2023-05-03T19:53:37.729Z,0.95
2023-05-03T19:56:39.181Z,0.95
2023-05-03T19:59:40.629Z,1.10
2023-05-03T20:02:42.159Z,1.10
2023-05-03T20:05:43.928Z,1.00
2023-05-03T20:08:45.448Z,1.00
2023-05-03T20:11:48.492Z,0.90
2023-05-03T20:14:49.953Z,0.98
2023-05-03T20:17:53.344Z,1.10
2023-05-03T20:20:54.817Z,1.08
2023-05-03T20:23:56.718Z,1.13
2023-05-03T20:26:58.210Z,0.90
2023-05-03T20:29:59.651Z,1.00
2023-05-03T20:33:01.256Z,0.90
2023-05-03T20:36:02.905Z,1.00
2023-05-03T20:39:05.039Z,1.00
2023-05-03T20:42:06.506Z,1.00
2023-05-03T20:45:08.422Z,0.90
2023-05-03T20:48:09.967Z,0.90
2023-05-03T20:51:11.510Z,1.08
2023-05-03T20:54:13.233Z,0.90
2023-05-03T20:57:17.843Z,0.80
2023-05-03T21:00:20.935Z,1.10
2023-05-03T21:03:28.080Z,0.80
2023-05-03T21:06:29.647Z,0.90
2023-05-03T21:09:31.461Z,0.90
2023-05-03T21:12:33.525Z,1.05
2023-05-03T21:15:37.166Z,1.05
2023-05-03T21:18:38.657Z,0.80
2023-05-03T21:21:41.212Z,1.00
2023-05-03T21:24:42.816Z,0.90
2023-05-03T21:27:44.252Z,0.90
2023-05-03T21:30:48.282Z,0.93
2023-05-03T21:33:49.767Z,0.90
2023-05-03T21:36:51.303Z,0.80
2023-05-03T21:40:01.033Z,0.80
2023-05-03T21:43:04.614Z,1.02
2023-05-03T21:46:09.701Z,1.10
2023-05-03T21:49:11.856Z,0.90
2023-05-03T21:52:13.706Z,0.90
2023-05-03T21:55:15.227Z,1.00
2023-05-03T21:58:16.689Z,0.90
2023-05-03T22:01:19.975Z,0.98
2023-05-03T22:04:21.661Z,0.90
2023-05-03T22:07:23.165Z,0.80
2023-05-03T22:10:24.819Z,0.80
2023-05-03T22:13:26.302Z,0.90
2023-05-03T22:16:27.857Z,0.90
2023-05-03T22:19:29.655Z,0.80
2023-05-03T22:22:31.388Z,0.90
2023-05-03T22:25:32.901Z,0.90
2023-05-03T22:28:34.394Z,0.80
2023-05-03T22:31:36.204Z,0.90
2023-05-03T22:34:37.692Z,1.00
2023-05-03T22:37:39.153Z,0.80
2023-05-03T22:40:40.911Z,0.90
2023-05-03T22:43:42.461Z,0.90
2023-05-03T22:46:43.980Z,0.90
2023-05-03T22:49:45.413Z,1.63
2023-05-03T22:52:47.099Z,0.80
2023-05-03T22:55:58.595Z,0.73
2023-05-03T22:59:00.027Z,1.00
2023-05-03T23:02:01.556Z,0.90
2023-05-03T23:05:03.120Z,0.80
2023-05-03T23:08:04.647Z,0.85
2023-05-03T23:11:06.137Z,0.90
2023-05-03T23:14:07.614Z,0.90
2023-05-03T23:17:12.907Z,0.90
2023-05-03T23:20:14.868Z,0.80
2023-05-03T23:23:16.535Z,0.80
2023-05-03T23:26:18.026Z,1.05
2023-05-03T23:29:19.903Z,0.80
2023-05-03T23:32:22.055Z,0.88
2023-05-03T23:35:24.233Z,0.98
2023-05-03T23:38:25.772Z,0.70
2023-05-03T23:41:27.435Z,0.93
2023-05-03T23:44:38.693Z,0.90
2023-05-03T23:47:48.217Z,0.80
2023-05-03T23:50:49.728Z,0.90
2023-05-03T23:53:51.402Z,0.80
2023-05-03T23:56:52.983Z,0.80
2023-05-03T23:59:54.547Z,0.80
